sensor_id;sensor_type;location;lat;lon;timestamp;P1;durP1;ratioP1;P2;durP2;ratioP2
29730;SDS011;16639;51.488;0.152;2022-11-20T00:01:20;27.27;;;12.27;;
29730;SDS011;16639;51.488;0.152;2022-11-20T00:03:50;37.20;;;15.70;;
29730;SDS011;16639;51.488;0.152;2022-11-20T00:06:18;28.58;;;16.83;;
29730;SDS011;16639;51.488;0.152;2022-11-20T00:08:47;41.25;;;16.20;;
29730;SDS011;16639;51.488;0.152;2022-11-20T00:11:15;39.38;;;16.20;;
29730;SDS011;16639;51.488;0.152;2022-11-20T00:13:45;36.17;;;14.85;;
29730;SDS011;16639;51.488;0.152;2022-11-20T00:16:14;38.40;;;13.43;;
29730;SDS011;16639;51.488;0.152;2022-11-20T00:18:44;28.65;;;12.80;;
29730;SDS011;16639;51.488;0.152;2022-11-20T00:21:13;29.77;;;13.23;;
29730;SDS011;16639;51.488;0.152;2022-11-20T00:23:42;25.10;;;11.52;;
29730;SDS011;16639;51.488;0.152;2022-11-20T00:26:11;23.00;;;10.73;;
29730;SDS011;16639;51.488;0.152;2022-11-20T00:28:40;25.65;;;12.57;;
29730;SDS011;16639;51.488;0.152;2022-11-20T00:31:12;27.10;;;12.23;;
29730;SDS011;16639;51.488;0.152;2022-11-20T00:33:41;28.35;;;12.32;;
29730;SDS011;16639;51.488;0.152;2022-11-20T00:36:11;25.85;;;11.35;;
29730;SDS011;16639;51.488;0.152;2022-11-20T00:38:52;23.02;;;10.32;;
29730;SDS011;16639;51.488;0.152;2022-11-20T00:41:21;26.70;;;10.95;;
29730;SDS011;16639;51.488;0.152;2022-11-20T00:43:48;27.20;;;11.70;;
29730;SDS011;16639;51.488;0.152;2022-11-20T00:46:18;24.55;;;10.60;;
29730;SDS011;16639;51.488;0.152;2022-11-20T00:48:48;23.48;;;9.65;;
29730;SDS011;16639;51.488;0.152;2022-11-20T00:51:20;22.00;;;10.90;;
29730;SDS011;16639;51.488;0.152;2022-11-20T00:53:49;22.30;;;10.93;;
29730;SDS011;16639;51.488;0.152;2022-11-20T00:56:18;25.40;;;11.38;;
29730;SDS011;16639;51.488;0.152;2022-11-20T00:58:46;20.45;;;10.27;;
29730;SDS011;16639;51.488;0.152;2022-11-20T01:01:18;25.25;;;10.20;;
29730;SDS011;16639;51.488;0.152;2022-11-20T01:03:52;20.40;;;10.85;;
29730;SDS011;16639;51.488;0.152;2022-11-20T01:06:24;33.47;;;10.77;;
29730;SDS011;16639;51.488;0.152;2022-11-20T01:08:55;25.40;;;11.80;;
29730;SDS011;16639;51.488;0.152;2022-11-20T01:11:28;28.00;;;10.77;;
29730;SDS011;16639;51.488;0.152;2022-11-20T01:13:57;29.48;;;11.35;;
29730;SDS011;16639;51.488;0.152;2022-11-20T01:16:26;25.98;;;11.10;;
29730;SDS011;16639;51.488;0.152;2022-11-20T01:18:59;21.40;;;10.10;;
29730;SDS011;16639;51.488;0.152;2022-11-20T01:21:30;20.25;;;9.43;;
29730;SDS011;16639;51.488;0.152;2022-11-20T01:24:05;23.55;;;9.80;;
29730;SDS011;16639;51.488;0.152;2022-11-20T01:26:35;25.70;;;9.52;;
29730;SDS011;16639;51.488;0.152;2022-11-20T01:29:04;21.65;;;9.80;;
29730;SDS011;16639;51.488;0.152;2022-11-20T01:31:32;20.35;;;10.00;;
29730;SDS011;16639;51.488;0.152;2022-11-20T01:34:05;18.05;;;8.05;;
29730;SDS011;16639;51.488;0.152;2022-11-20T01:36:36;22.88;;;9.13;;
29730;SDS011;16639;51.488;0.152;2022-11-20T01:39:06;14.90;;;8.65;;
29730;SDS011;16639;51.488;0.152;2022-11-20T01:41:44;22.20;;;9.07;;
29730;SDS011;16639;51.488;0.152;2022-11-20T01:44:55;21.20;;;8.07;;
29730;SDS011;16639;51.488;0.152;2022-11-20T01:47:28;21.63;;;7.90;;
29730;SDS011;16639;51.488;0.152;2022-11-20T01:50:19;13.82;;;7.93;;
29730;SDS011;16639;51.488;0.152;2022-11-20T01:55:27;19.00;;;8.27;;
29730;SDS011;16639;51.488;0.152;2022-11-20T01:57:58;18.00;;;7.47;;
29730;SDS011;16639;51.488;0.152;2022-11-20T02:00:26;22.55;;;8.23;;
29730;SDS011;16639;51.488;0.152;2022-11-20T02:02:57;14.43;;;7.03;;
29730;SDS011;16639;51.488;0.152;2022-11-20T02:08:00;19.52;;;8.32;;
29730;SDS011;16639;51.488;0.152;2022-11-20T02:10:30;16.05;;;6.20;;
29730;SDS011;16639;51.488;0.152;2022-11-20T02:12:58;14.00;;;7.45;;
29730;SDS011;16639;51.488;0.152;2022-11-20T02:15:44;13.63;;;6.10;;
29730;SDS011;16639;51.488;0.152;2022-11-20T02:18:13;15.48;;;7.00;;
29730;SDS011;16639;51.488;0.152;2022-11-20T02:20:44;11.43;;;5.85;;
29730;SDS011;16639;51.488;0.152;2022-11-20T02:28:19;12.73;;;6.38;;
29730;SDS011;16639;51.488;0.152;2022-11-20T02:30:47;10.98;;;5.85;;
29730;SDS011;16639;51.488;0.152;2022-11-20T02:33:14;16.08;;;7.40;;
29730;SDS011;16639;51.488;0.152;2022-11-20T02:35:43;17.70;;;6.65;;
29730;SDS011;16639;51.488;0.152;2022-11-20T02:38:13;15.00;;;5.30;;
29730;SDS011;16639;51.488;0.152;2022-11-20T02:40:42;19.08;;;5.57;;
29730;SDS011;16639;51.488;0.152;2022-11-20T02:43:09;10.20;;;5.55;;
29730;SDS011;16639;51.488;0.152;2022-11-20T02:45:37;16.55;;;6.53;;
29730;SDS011;16639;51.488;0.152;2022-11-20T02:48:11;12.90;;;7.25;;
29730;SDS011;16639;51.488;0.152;2022-11-20T02:50:39;15.32;;;6.40;;
29730;SDS011;16639;51.488;0.152;2022-11-20T02:53:07;13.20;;;5.78;;
29730;SDS011;16639;51.488;0.152;2022-11-20T02:55:35;12.35;;;7.03;;
29730;SDS011;16639;51.488;0.152;2022-11-20T02:58:02;12.80;;;6.03;;
29730;SDS011;16639;51.488;0.152;2022-11-20T03:00:30;11.88;;;6.03;;
29730;SDS011;16639;51.488;0.152;2022-11-20T03:02:58;14.55;;;6.90;;
29730;SDS011;16639;51.488;0.152;2022-11-20T03:05:25;12.63;;;6.32;;
29730;SDS011;16639;51.488;0.152;2022-11-20T03:07:53;12.18;;;6.15;;
29730;SDS011;16639;51.488;0.152;2022-11-20T03:10:20;13.35;;;5.38;;
29730;SDS011;16639;51.488;0.152;2022-11-20T03:12:52;15.73;;;5.15;;
29730;SDS011;16639;51.488;0.152;2022-11-20T03:15:22;9.02;;;4.88;;
29730;SDS011;16639;51.488;0.152;2022-11-20T03:17:52;13.65;;;5.22;;
29730;SDS011;16639;51.488;0.152;2022-11-20T03:20:21;13.20;;;5.20;;
29730;SDS011;16639;51.488;0.152;2022-11-20T03:22:49;10.75;;;3.50;;
29730;SDS011;16639;51.488;0.152;2022-11-20T03:25:17;16.15;;;5.70;;
29730;SDS011;16639;51.488;0.152;2022-11-20T03:27:44;12.50;;;3.97;;
29730;SDS011;16639;51.488;0.152;2022-11-20T03:30:11;10.90;;;4.15;;
29730;SDS011;16639;51.488;0.152;2022-11-20T03:32:39;10.27;;;4.00;;
29730;SDS011;16639;51.488;0.152;2022-11-20T03:35:06;14.43;;;4.55;;
29730;SDS011;16639;51.488;0.152;2022-11-20T03:37:34;12.13;;;3.83;;
29730;SDS011;16639;51.488;0.152;2022-11-20T03:40:02;13.88;;;4.15;;
29730;SDS011;16639;51.488;0.152;2022-11-20T03:42:30;11.80;;;4.55;;
29730;SDS011;16639;51.488;0.152;2022-11-20T03:45:23;8.60;;;4.05;;
29730;SDS011;16639;51.488;0.152;2022-11-20T03:47:51;9.23;;;4.03;;
29730;SDS011;16639;51.488;0.152;2022-11-20T03:50:18;10.00;;;3.92;;
29730;SDS011;16639;51.488;0.152;2022-11-20T03:52:45;8.63;;;3.08;;
29730;SDS011;16639;51.488;0.152;2022-11-20T03:55:13;11.45;;;3.65;;
29730;SDS011;16639;51.488;0.152;2022-11-20T03:57:40;6.50;;;3.10;;
29730;SDS011;16639;51.488;0.152;2022-11-20T04:00:07;10.02;;;2.67;;
29730;SDS011;16639;51.488;0.152;2022-11-20T04:02:35;9.32;;;3.00;;
29730;SDS011;16639;51.488;0.152;2022-11-20T04:05:03;7.30;;;3.47;;
29730;SDS011;16639;51.488;0.152;2022-11-20T04:07:30;11.65;;;3.53;;
29730;SDS011;16639;51.488;0.152;2022-11-20T04:09:58;12.85;;;3.80;;
29730;SDS011;16639;51.488;0.152;2022-11-20T04:12:25;8.73;;;3.63;;
29730;SDS011;16639;51.488;0.152;2022-11-20T04:14:52;8.60;;;3.95;;
29730;SDS011;16639;51.488;0.152;2022-11-20T04:17:19;7.40;;;3.05;;
29730;SDS011;16639;51.488;0.152;2022-11-20T04:19:47;8.98;;;3.03;;
29730;SDS011;16639;51.488;0.152;2022-11-20T04:22:14;5.22;;;3.20;;
29730;SDS011;16639;51.488;0.152;2022-11-20T04:24:42;6.50;;;3.00;;
29730;SDS011;16639;51.488;0.152;2022-11-20T04:27:09;7.25;;;2.90;;
29730;SDS011;16639;51.488;0.152;2022-11-20T04:29:36;8.13;;;2.97;;
29730;SDS011;16639;51.488;0.152;2022-11-20T04:32:04;8.23;;;3.88;;
29730;SDS011;16639;51.488;0.152;2022-11-20T04:34:31;9.23;;;3.28;;
29730;SDS011;16639;51.488;0.152;2022-11-20T04:36:59;6.20;;;2.65;;
29730;SDS011;16639;51.488;0.152;2022-11-20T04:39:26;14.93;;;3.58;;
29730;SDS011;16639;51.488;0.152;2022-11-20T04:41:54;12.13;;;3.40;;
29730;SDS011;16639;51.488;0.152;2022-11-20T04:44:39;7.55;;;3.75;;
29730;SDS011;16639;51.488;0.152;2022-11-20T04:47:07;9.48;;;3.90;;
29730;SDS011;16639;51.488;0.152;2022-11-20T04:49:34;7.30;;;3.60;;
29730;SDS011;16639;51.488;0.152;2022-11-20T04:52:02;11.48;;;4.07;;
29730;SDS011;16639;51.488;0.152;2022-11-20T04:54:29;10.60;;;3.97;;
29730;SDS011;16639;51.488;0.152;2022-11-20T04:56:57;14.27;;;4.25;;
29730;SDS011;16639;51.488;0.152;2022-11-20T04:59:24;8.55;;;3.47;;
29730;SDS011;16639;51.488;0.152;2022-11-20T05:01:51;10.60;;;4.25;;
29730;SDS011;16639;51.488;0.152;2022-11-20T05:04:19;10.95;;;4.85;;
29730;SDS011;16639;51.488;0.152;2022-11-20T05:06:46;6.35;;;3.42;;
29730;SDS011;16639;51.488;0.152;2022-11-20T05:09:13;12.00;;;4.00;;
29730;SDS011;16639;51.488;0.152;2022-11-20T05:11:41;20.08;;;4.50;;
29730;SDS011;16639;51.488;0.152;2022-11-20T05:14:08;8.00;;;3.95;;
29730;SDS011;16639;51.488;0.152;2022-11-20T05:16:36;9.13;;;4.10;;
29730;SDS011;16639;51.488;0.152;2022-11-20T05:19:03;19.08;;;4.15;;
29730;SDS011;16639;51.488;0.152;2022-11-20T05:21:30;12.98;;;5.38;;
29730;SDS011;16639;51.488;0.152;2022-11-20T05:23:59;12.40;;;4.63;;
29730;SDS011;16639;51.488;0.152;2022-11-20T05:26:26;10.02;;;3.80;;
29730;SDS011;16639;51.488;0.152;2022-11-20T05:28:53;11.15;;;4.13;;
29730;SDS011;16639;51.488;0.152;2022-11-20T05:31:22;9.18;;;3.72;;
29730;SDS011;16639;51.488;0.152;2022-11-20T05:33:54;8.50;;;4.43;;
29730;SDS011;16639;51.488;0.152;2022-11-20T05:36:23;12.65;;;4.10;;
29730;SDS011;16639;51.488;0.152;2022-11-20T05:38:50;9.25;;;4.20;;
29730;SDS011;16639;51.488;0.152;2022-11-20T05:41:23;10.70;;;4.20;;
29730;SDS011;16639;51.488;0.152;2022-11-20T05:43:51;10.80;;;3.85;;
29730;SDS011;16639;51.488;0.152;2022-11-20T05:46:19;8.98;;;4.47;;
29730;SDS011;16639;51.488;0.152;2022-11-20T05:48:54;10.30;;;4.50;;
29730;SDS011;16639;51.488;0.152;2022-11-20T05:51:22;8.23;;;4.47;;
29730;SDS011;16639;51.488;0.152;2022-11-20T05:53:50;9.63;;;4.57;;
29730;SDS011;16639;51.488;0.152;2022-11-20T05:56:18;8.88;;;4.80;;
29730;SDS011;16639;51.488;0.152;2022-11-20T05:58:47;6.95;;;4.35;;
29730;SDS011;16639;51.488;0.152;2022-11-20T06:01:20;15.88;;;4.45;;
29730;SDS011;16639;51.488;0.152;2022-11-20T06:03:49;9.93;;;4.78;;
29730;SDS011;16639;51.488;0.152;2022-11-20T06:06:18;14.02;;;5.13;;
29730;SDS011;16639;51.488;0.152;2022-11-20T06:08:46;11.50;;;5.03;;
29730;SDS011;16639;51.488;0.152;2022-11-20T06:11:14;9.50;;;4.93;;
29730;SDS011;16639;51.488;0.152;2022-11-20T06:13:42;9.27;;;4.57;;
29730;SDS011;16639;51.488;0.152;2022-11-20T06:16:10;9.77;;;4.65;;
29730;SDS011;16639;51.488;0.152;2022-11-20T06:18:39;7.32;;;4.20;;
29730;SDS011;16639;51.488;0.152;2022-11-20T06:21:10;14.55;;;5.35;;
29730;SDS011;16639;51.488;0.152;2022-11-20T06:23:39;9.82;;;4.72;;
29730;SDS011;16639;51.488;0.152;2022-11-20T06:26:08;10.57;;;5.03;;
29730;SDS011;16639;51.488;0.152;2022-11-20T06:28:38;8.43;;;4.78;;
29730;SDS011;16639;51.488;0.152;2022-11-20T06:31:06;15.82;;;6.13;;
29730;SDS011;16639;51.488;0.152;2022-11-20T06:33:34;9.35;;;5.03;;
29730;SDS011;16639;51.488;0.152;2022-11-20T06:36:02;13.82;;;4.75;;
29730;SDS011;16639;51.488;0.152;2022-11-20T06:38:36;8.40;;;4.55;;
29730;SDS011;16639;51.488;0.152;2022-11-20T06:41:04;12.77;;;5.13;;
29730;SDS011;16639;51.488;0.152;2022-11-20T06:43:32;7.32;;;4.88;;
29730;SDS011;16639;51.488;0.152;2022-11-20T06:46:00;10.68;;;4.20;;
29730;SDS011;16639;51.488;0.152;2022-11-20T06:48:27;14.77;;;4.93;;
29730;SDS011;16639;51.488;0.152;2022-11-20T06:50:55;8.55;;;4.40;;
29730;SDS011;16639;51.488;0.152;2022-11-20T06:53:23;8.98;;;4.13;;
29730;SDS011;16639;51.488;0.152;2022-11-20T06:55:51;12.68;;;5.18;;
29730;SDS011;16639;51.488;0.152;2022-11-20T06:58:22;7.50;;;4.28;;
29730;SDS011;16639;51.488;0.152;2022-11-20T07:00:49;11.68;;;4.78;;
29730;SDS011;16639;51.488;0.152;2022-11-20T07:03:16;9.65;;;4.00;;
29730;SDS011;16639;51.488;0.152;2022-11-20T07:05:44;11.38;;;4.35;;
29730;SDS011;16639;51.488;0.152;2022-11-20T07:08:12;7.85;;;4.13;;
29730;SDS011;16639;51.488;0.152;2022-11-20T07:10:39;5.93;;;4.20;;
29730;SDS011;16639;51.488;0.152;2022-11-20T07:13:07;12.18;;;4.63;;
29730;SDS011;16639;51.488;0.152;2022-11-20T07:15:34;10.18;;;4.15;;
29730;SDS011;16639;51.488;0.152;2022-11-20T07:18:01;12.98;;;5.38;;
29730;SDS011;16639;51.488;0.152;2022-11-20T07:20:29;8.73;;;4.43;;
29730;SDS011;16639;51.488;0.152;2022-11-20T07:22:57;10.07;;;4.47;;
29730;SDS011;16639;51.488;0.152;2022-11-20T07:25:25;8.45;;;4.75;;
29730;SDS011;16639;51.488;0.152;2022-11-20T07:27:57;8.73;;;4.75;;
29730;SDS011;16639;51.488;0.152;2022-11-20T07:30:28;11.80;;;4.80;;
29730;SDS011;16639;51.488;0.152;2022-11-20T07:32:57;9.52;;;4.10;;
29730;SDS011;16639;51.488;0.152;2022-11-20T07:35:25;10.73;;;4.93;;
29730;SDS011;16639;51.488;0.152;2022-11-20T07:37:52;15.85;;;5.57;;
29730;SDS011;16639;51.488;0.152;2022-11-20T07:40:19;12.93;;;6.22;;
29730;SDS011;16639;51.488;0.152;2022-11-20T07:42:47;9.43;;;5.10;;
29730;SDS011;16639;51.488;0.152;2022-11-20T07:45:16;20.30;;;7.72;;
29730;SDS011;16639;51.488;0.152;2022-11-20T07:47:44;165.65;;;19.10;;
29730;SDS011;16639;51.488;0.152;2022-11-20T07:50:11;25.42;;;8.75;;
29730;SDS011;16639;51.488;0.152;2022-11-20T07:52:39;61.08;;;11.77;;
29730;SDS011;16639;51.488;0.152;2022-11-20T07:55:07;97.18;;;12.43;;
29730;SDS011;16639;51.488;0.152;2022-11-20T07:57:35;13.75;;;6.80;;
29730;SDS011;16639;51.488;0.152;2022-11-20T08:00:03;13.73;;;6.63;;
29730;SDS011;16639;51.488;0.152;2022-11-20T08:02:32;17.40;;;8.32;;
29730;SDS011;16639;51.488;0.152;2022-11-20T08:04:59;14.40;;;8.88;;
29730;SDS011;16639;51.488;0.152;2022-11-20T08:07:26;17.33;;;9.93;;
29730;SDS011;16639;51.488;0.152;2022-11-20T08:09:54;27.20;;;10.30;;
29730;SDS011;16639;51.488;0.152;2022-11-20T08:12:21;17.42;;;9.90;;
29730;SDS011;16639;51.488;0.152;2022-11-20T08:15:07;15.07;;;9.00;;
29730;SDS011;16639;51.488;0.152;2022-11-20T08:17:39;18.55;;;10.13;;
29730;SDS011;16639;51.488;0.152;2022-11-20T08:20:06;15.73;;;8.65;;
29730;SDS011;16639;51.488;0.152;2022-11-20T08:22:34;17.25;;;9.68;;
29730;SDS011;16639;51.488;0.152;2022-11-20T08:25:01;16.25;;;8.50;;
29730;SDS011;16639;51.488;0.152;2022-11-20T08:27:29;14.02;;;8.60;;
29730;SDS011;16639;51.488;0.152;2022-11-20T08:29:58;8.90;;;6.03;;
29730;SDS011;16639;51.488;0.152;2022-11-20T08:32:25;12.60;;;6.28;;
29730;SDS011;16639;51.488;0.152;2022-11-20T08:34:53;9.38;;;5.60;;
29730;SDS011;16639;51.488;0.152;2022-11-20T08:37:20;8.27;;;5.22;;
29730;SDS011;16639;51.488;0.152;2022-11-20T08:39:47;8.02;;;4.93;;
29730;SDS011;16639;51.488;0.152;2022-11-20T08:42:15;7.95;;;5.00;;
29730;SDS011;16639;51.488;0.152;2022-11-20T08:44:42;7.82;;;5.78;;
29730;SDS011;16639;51.488;0.152;2022-11-20T08:47:09;23.83;;;7.80;;
29730;SDS011;16639;51.488;0.152;2022-11-20T08:49:37;133.25;;;17.27;;
29730;SDS011;16639;51.488;0.152;2022-11-20T08:52:04;16.90;;;8.10;;
29730;SDS011;16639;51.488;0.152;2022-11-20T08:54:32;11.48;;;7.15;;
29730;SDS011;16639;51.488;0.152;2022-11-20T08:56:59;15.85;;;7.65;;
29730;SDS011;16639;51.488;0.152;2022-11-20T08:59:26;13.38;;;8.68;;
29730;SDS011;16639;51.488;0.152;2022-11-20T09:02:14;15.13;;;8.63;;
29730;SDS011;16639;51.488;0.152;2022-11-20T09:04:42;18.63;;;8.77;;
29730;SDS011;16639;51.488;0.152;2022-11-20T09:07:09;19.60;;;10.30;;
29730;SDS011;16639;51.488;0.152;2022-11-20T09:09:36;17.65;;;9.63;;
29730;SDS011;16639;51.488;0.152;2022-11-20T09:12:04;14.98;;;8.63;;
29730;SDS011;16639;51.488;0.152;2022-11-20T09:14:31;20.10;;;7.35;;
29730;SDS011;16639;51.488;0.152;2022-11-20T09:16:59;14.50;;;6.47;;
29730;SDS011;16639;51.488;0.152;2022-11-20T09:19:26;9.20;;;5.22;;
29730;SDS011;16639;51.488;0.152;2022-11-20T09:22:01;10.23;;;5.93;;
29730;SDS011;16639;51.488;0.152;2022-11-20T09:24:29;15.80;;;5.90;;
29730;SDS011;16639;51.488;0.152;2022-11-20T09:26:56;13.65;;;4.80;;
29730;SDS011;16639;51.488;0.152;2022-11-20T09:29:23;13.60;;;5.65;;
29730;SDS011;16639;51.488;0.152;2022-11-20T09:31:51;17.23;;;5.13;;
29730;SDS011;16639;51.488;0.152;2022-11-20T09:34:18;11.93;;;4.80;;
29730;SDS011;16639;51.488;0.152;2022-11-20T09:36:45;16.33;;;4.57;;
29730;SDS011;16639;51.488;0.152;2022-11-20T09:39:13;15.15;;;4.30;;
29730;SDS011;16639;51.488;0.152;2022-11-20T09:49:35;16.50;;;5.35;;
29730;SDS011;16639;51.488;0.152;2022-11-20T09:55:04;16.45;;;5.05;;
29730;SDS011;16639;51.488;0.152;2022-11-20T09:57:37;14.80;;;5.07;;
29730;SDS011;16639;51.488;0.152;2022-11-20T10:00:12;24.40;;;6.38;;
29730;SDS011;16639;51.488;0.152;2022-11-20T10:05:25;19.88;;;5.43;;
29730;SDS011;16639;51.488;0.152;2022-11-20T10:10:46;18.73;;;5.30;;
29730;SDS011;16639;51.488;0.152;2022-11-20T10:25:16;14.65;;;5.68;;
29730;SDS011;16639;51.488;0.152;2022-11-20T10:27:49;21.25;;;5.57;;
29730;SDS011;16639;51.488;0.152;2022-11-20T10:30:26;15.32;;;6.65;;
29730;SDS011;16639;51.488;0.152;2022-11-20T10:32:54;21.58;;;5.88;;
29730;SDS011;16639;51.488;0.152;2022-11-20T10:35:44;17.80;;;6.22;;
29730;SDS011;16639;51.488;0.152;2022-11-20T10:38:26;19.50;;;6.15;;
29730;SDS011;16639;51.488;0.152;2022-11-20T10:41:07;16.23;;;5.82;;
29730;SDS011;16639;51.488;0.152;2022-11-20T10:43:59;28.02;;;8.48;;
29730;SDS011;16639;51.488;0.152;2022-11-20T10:46:40;20.55;;;8.23;;
29730;SDS011;16639;51.488;0.152;2022-11-20T10:49:14;26.02;;;9.18;;
29730;SDS011;16639;51.488;0.152;2022-11-20T10:56:54;26.23;;;8.18;;
29730;SDS011;16639;51.488;0.152;2022-11-20T10:59:41;28.75;;;8.77;;
29730;SDS011;16639;51.488;0.152;2022-11-20T11:02:20;27.48;;;8.27;;
29730;SDS011;16639;51.488;0.152;2022-11-20T11:04:50;15.32;;;5.32;;
29730;SDS011;16639;51.488;0.152;2022-11-20T11:07:22;18.48;;;5.22;;
29730;SDS011;16639;51.488;0.152;2022-11-20T11:09:53;17.20;;;5.55;;
29730;SDS011;16639;51.488;0.152;2022-11-20T11:12:22;14.18;;;5.03;;
29730;SDS011;16639;51.488;0.152;2022-11-20T11:14:52;29.40;;;5.85;;
29730;SDS011;16639;51.488;0.152;2022-11-20T11:17:26;28.13;;;6.65;;
29730;SDS011;16639;51.488;0.152;2022-11-20T11:20:01;24.30;;;5.25;;
29730;SDS011;16639;51.488;0.152;2022-11-20T11:22:32;23.23;;;6.07;;
29730;SDS011;16639;51.488;0.152;2022-11-20T11:25:01;23.08;;;5.05;;
29730;SDS011;16639;51.488;0.152;2022-11-20T11:27:29;17.08;;;5.03;;
29730;SDS011;16639;51.488;0.152;2022-11-20T11:30:10;24.92;;;5.63;;
29730;SDS011;16639;51.488;0.152;2022-11-20T11:32:40;16.45;;;4.85;;
29730;SDS011;16639;51.488;0.152;2022-11-20T11:35:21;21.85;;;5.18;;
29730;SDS011;16639;51.488;0.152;2022-11-20T11:38:06;21.88;;;5.30;;
29730;SDS011;16639;51.488;0.152;2022-11-20T11:40:39;26.60;;;6.45;;
29730;SDS011;16639;51.488;0.152;2022-11-20T11:43:16;30.77;;;5.18;;
29730;SDS011;16639;51.488;0.152;2022-11-20T11:46:13;25.27;;;5.40;;
29730;SDS011;16639;51.488;0.152;2022-11-20T11:51:25;19.77;;;4.75;;
29730;SDS011;16639;51.488;0.152;2022-11-20T11:54:14;20.38;;;4.68;;
29730;SDS011;16639;51.488;0.152;2022-11-20T11:57:54;20.27;;;4.78;;
29730;SDS011;16639;51.488;0.152;2022-11-20T12:00:17;29.25;;;6.28;;
29730;SDS011;16639;51.488;0.152;2022-11-20T12:02:52;19.83;;;5.15;;
29730;SDS011;16639;51.488;0.152;2022-11-20T12:05:35;28.27;;;5.53;;
29730;SDS011;16639;51.488;0.152;2022-11-20T12:08:15;27.15;;;5.38;;
29730;SDS011;16639;51.488;0.152;2022-11-20T12:16:15;27.23;;;5.38;;
29730;SDS011;16639;51.488;0.152;2022-11-20T12:18:46;22.30;;;4.88;;
29730;SDS011;16639;51.488;0.152;2022-11-20T12:30:04;15.57;;;5.32;;
29730;SDS011;16639;51.488;0.152;2022-11-20T12:35:25;29.57;;;6.67;;
29730;SDS011;16639;51.488;0.152;2022-11-20T12:44:44;30.17;;;5.63;;
29730;SDS011;16639;51.488;0.152;2022-11-20T13:07:03;23.30;;;5.60;;
29730;SDS011;16639;51.488;0.152;2022-11-20T13:09:35;29.45;;;5.45;;
29730;SDS011;16639;51.488;0.152;2022-11-20T13:14:42;27.23;;;5.55;;
29730;SDS011;16639;51.488;0.152;2022-11-20T13:17:14;28.05;;;6.20;;
29730;SDS011;16639;51.488;0.152;2022-11-20T13:20:12;20.52;;;4.43;;
29730;SDS011;16639;51.488;0.152;2022-11-20T13:22:47;19.25;;;4.75;;
29730;SDS011;16639;51.488;0.152;2022-11-20T13:30:36;23.33;;;4.63;;
29730;SDS011;16639;51.488;0.152;2022-11-20T13:36:05;24.30;;;4.70;;
29730;SDS011;16639;51.488;0.152;2022-11-20T13:38:44;27.80;;;4.95;;
29730;SDS011;16639;51.488;0.152;2022-11-20T13:41:25;24.63;;;3.95;;
29730;SDS011;16639;51.488;0.152;2022-11-20T13:43:59;18.27;;;4.93;;
29730;SDS011;16639;51.488;0.152;2022-11-20T13:46:46;20.10;;;4.55;;
29730;SDS011;16639;51.488;0.152;2022-11-20T13:54:55;19.25;;;5.13;;
29730;SDS011;16639;51.488;0.152;2022-11-20T14:00:27;24.65;;;5.15;;
29730;SDS011;16639;51.488;0.152;2022-11-20T14:06:12;24.42;;;4.32;;
29730;SDS011;16639;51.488;0.152;2022-11-20T14:08:51;13.57;;;3.67;;
29730;SDS011;16639;51.488;0.152;2022-11-20T14:11:19;15.88;;;5.03;;
29730;SDS011;16639;51.488;0.152;2022-11-20T14:16:32;19.27;;;4.07;;
29730;SDS011;16639;51.488;0.152;2022-11-20T14:22:08;27.27;;;4.47;;
29730;SDS011;16639;51.488;0.152;2022-11-20T14:24:43;25.25;;;4.40;;
29730;SDS011;16639;51.488;0.152;2022-11-20T14:27:18;22.10;;;5.20;;
29730;SDS011;16639;51.488;0.152;2022-11-20T14:29:48;13.10;;;4.22;;
29730;SDS011;16639;51.488;0.152;2022-11-20T14:32:20;17.60;;;3.88;;
29730;SDS011;16639;51.488;0.152;2022-11-20T14:34:50;18.40;;;4.47;;
29730;SDS011;16639;51.488;0.152;2022-11-20T14:37:19;29.42;;;5.03;;
29730;SDS011;16639;51.488;0.152;2022-11-20T14:39:51;20.08;;;3.92;;
29730;SDS011;16639;51.488;0.152;2022-11-20T14:42:23;17.13;;;4.97;;
29730;SDS011;16639;51.488;0.152;2022-11-20T14:44:55;19.33;;;4.95;;
29730;SDS011;16639;51.488;0.152;2022-11-20T14:47:28;15.13;;;5.03;;
29730;SDS011;16639;51.488;0.152;2022-11-20T14:49:57;21.15;;;5.30;;
29730;SDS011;16639;51.488;0.152;2022-11-20T14:52:31;17.58;;;4.55;;
29730;SDS011;16639;51.488;0.152;2022-11-20T14:54:58;20.55;;;5.30;;
29730;SDS011;16639;51.488;0.152;2022-11-20T14:57:27;21.35;;;4.72;;
29730;SDS011;16639;51.488;0.152;2022-11-20T15:00:42;25.00;;;5.47;;
29730;SDS011;16639;51.488;0.152;2022-11-20T15:02:50;22.25;;;4.22;;
29730;SDS011;16639;51.488;0.152;2022-11-20T15:05:22;14.25;;;4.10;;
29730;SDS011;16639;51.488;0.152;2022-11-20T15:08:06;16.05;;;3.67;;
29730;SDS011;16639;51.488;0.152;2022-11-20T15:10:35;14.95;;;4.82;;
29730;SDS011;16639;51.488;0.152;2022-11-20T15:13:05;26.00;;;5.05;;
29730;SDS011;16639;51.488;0.152;2022-11-20T15:18:18;22.45;;;5.03;;
29730;SDS011;16639;51.488;0.152;2022-11-20T15:20:49;18.73;;;4.82;;
29730;SDS011;16639;51.488;0.152;2022-11-20T15:23:17;20.65;;;5.47;;
29730;SDS011;16639;51.488;0.152;2022-11-20T15:25:46;31.83;;;6.15;;
29730;SDS011;16639;51.488;0.152;2022-11-20T15:30:57;24.88;;;5.97;;
29730;SDS011;16639;51.488;0.152;2022-11-20T15:33:24;24.67;;;6.68;;
29730;SDS011;16639;51.488;0.152;2022-11-20T15:35:52;15.35;;;4.47;;
29730;SDS011;16639;51.488;0.152;2022-11-20T15:38:19;22.15;;;5.03;;
29730;SDS011;16639;51.488;0.152;2022-11-20T15:40:46;21.15;;;5.22;;
29730;SDS011;16639;51.488;0.152;2022-11-20T15:43:14;19.70;;;4.53;;
29730;SDS011;16639;51.488;0.152;2022-11-20T15:45:45;20.73;;;4.97;;
29730;SDS011;16639;51.488;0.152;2022-11-20T15:48:18;19.98;;;6.43;;
29730;SDS011;16639;51.488;0.152;2022-11-20T15:51:01;18.73;;;4.93;;
29730;SDS011;16639;51.488;0.152;2022-11-20T15:53:50;17.13;;;4.30;;
29730;SDS011;16639;51.488;0.152;2022-11-20T15:56:17;20.80;;;5.80;;
29730;SDS011;16639;51.488;0.152;2022-11-20T15:58:44;21.05;;;4.32;;
29730;SDS011;16639;51.488;0.152;2022-11-20T16:01:13;22.77;;;5.10;;
29730;SDS011;16639;51.488;0.152;2022-11-20T16:03:42;21.40;;;4.32;;
29730;SDS011;16639;51.488;0.152;2022-11-20T16:06:10;32.90;;;5.47;;
29730;SDS011;16639;51.488;0.152;2022-11-20T16:08:38;25.10;;;6.90;;
29730;SDS011;16639;51.488;0.152;2022-11-20T16:11:06;31.48;;;7.65;;
29730;SDS011;16639;51.488;0.152;2022-11-20T16:13:33;23.83;;;6.93;;
29730;SDS011;16639;51.488;0.152;2022-11-20T16:18:48;36.13;;;7.85;;
29730;SDS011;16639;51.488;0.152;2022-11-20T16:21:16;21.75;;;6.07;;
29730;SDS011;16639;51.488;0.152;2022-11-20T16:23:44;16.80;;;5.35;;
29730;SDS011;16639;51.488;0.152;2022-11-20T16:26:12;29.17;;;6.20;;
29730;SDS011;16639;51.488;0.152;2022-11-20T16:28:40;25.30;;;5.35;;
29730;SDS011;16639;51.488;0.152;2022-11-20T16:31:08;19.73;;;5.40;;
29730;SDS011;16639;51.488;0.152;2022-11-20T16:33:36;27.13;;;4.95;;
29730;SDS011;16639;51.488;0.152;2022-11-20T16:36:13;19.95;;;4.22;;
29730;SDS011;16639;51.488;0.152;2022-11-20T16:38:41;24.55;;;5.25;;
29730;SDS011;16639;51.488;0.152;2022-11-20T16:41:09;29.92;;;6.40;;
29730;SDS011;16639;51.488;0.152;2022-11-20T16:43:46;22.85;;;6.13;;
29730;SDS011;16639;51.488;0.152;2022-11-20T16:46:19;21.98;;;5.60;;
29730;SDS011;16639;51.488;0.152;2022-11-20T16:48:55;20.17;;;4.93;;
29730;SDS011;16639;51.488;0.152;2022-11-20T16:51:24;20.85;;;5.28;;
29730;SDS011;16639;51.488;0.152;2022-11-20T16:53:52;18.45;;;6.03;;
29730;SDS011;16639;51.488;0.152;2022-11-20T16:56:23;17.17;;;5.95;;
29730;SDS011;16639;51.488;0.152;2022-11-20T16:58:53;22.70;;;5.68;;
29730;SDS011;16639;51.488;0.152;2022-11-20T17:01:22;20.88;;;4.60;;
29730;SDS011;16639;51.488;0.152;2022-11-20T17:03:58;19.50;;;5.57;;